createdAt,value
2018-10-12T00:00:06.518Z,101296.70
2018-10-12T00:00:18.272Z,101294.86
2018-10-12T00:00:34.281Z,101296.70
2018-10-12T00:00:46.123Z,101287.96
2018-10-12T00:00:57.880Z,101293.55
2018-10-12T00:01:13.604Z,101292.25
2018-10-12T00:01:25.369Z,101295.78
2018-10-12T00:01:37.231Z,101292.25
2018-10-12T00:01:48.983Z,101297.08
2018-10-12T00:02:00.753Z,101297.47
2018-10-12T00:02:12.506Z,101293.55
2018-10-12T00:02:24.430Z,101290.95
2018-10-12T00:02:36.191Z,101292.25
2018-10-12T00:02:47.965Z,101292.25
2018-10-12T00:02:59.721Z,101296.70
2018-10-12T00:03:12.161Z,101286.88
2018-10-12T00:03:23.898Z,101295.40
2018-10-12T00:03:35.643Z,101291.48
2018-10-12T00:03:47.428Z,101293.17
2018-10-12T00:03:59.213Z,101290.19
2018-10-12T00:04:10.970Z,101293.17
2018-10-12T00:04:22.915Z,101295.78
2018-10-12T00:04:34.672Z,101292.79
2018-10-12T00:04:46.420Z,101294.48
2018-10-12T00:04:58.175Z,101293.17
2018-10-12T00:05:10.322Z,101292.25
2018-10-12T00:05:22.082Z,101295.40
2018-10-12T00:05:33.828Z,101294.09
2018-10-12T00:05:45.573Z,101294.32
2018-10-12T00:05:57.310Z,101294.32
2018-10-12T00:06:09.069Z,101293.02
2018-10-12T00:06:20.820Z,101298.39
2018-10-12T00:06:32.583Z,101290.95
2018-10-12T00:06:44.342Z,101289.88
2018-10-12T00:06:56.098Z,101300.07
2018-10-12T00:07:07.844Z,101297.47
2018-10-12T00:07:19.855Z,101297.47
2018-10-12T00:07:31.603Z,101290.79
2018-10-12T00:07:43.624Z,101293.02
2018-10-12T00:07:55.401Z,101290.79
2018-10-12T00:08:07.159Z,101293.02
2018-10-12T00:08:18.927Z,101289.11
2018-10-12T00:08:30.669Z,101289.48
2018-10-12T00:08:42.410Z,101299.69
2018-10-12T00:08:54.159Z,101294.86
2018-10-12T00:09:05.957Z,101290.03
2018-10-12T00:09:17.713Z,101293.55
2018-10-12T00:09:29.480Z,101291.72
2018-10-12T00:09:41.251Z,101292.25
2018-10-12T00:09:53.023Z,101292.25
2018-10-12T00:10:04.786Z,101299.15
2018-10-12T00:10:16.534Z,101295.23
2018-10-12T00:10:28.283Z,101290.95
2018-10-12T00:10:40.067Z,101287.80
2018-10-12T00:10:51.815Z,101290.79
2018-10-12T00:11:03.591Z,101294.32
2018-10-12T00:11:15.349Z,101290.79
2018-10-12T00:11:27.111Z,101291.17
2018-10-12T00:11:39.157Z,101296.39
2018-10-12T00:11:50.912Z,101293.40
2018-10-12T00:12:02.671Z,101296.92
2018-10-12T00:12:14.426Z,101300.07
2018-10-12T00:12:26.193Z,101294.48
2018-10-12T00:12:37.956Z,101290.95
2018-10-12T00:12:49.729Z,101295.63
2018-10-12T00:13:01.482Z,101295.63
2018-10-12T00:13:13.223Z,101298.77
2018-10-12T00:13:24.995Z,101296.16
2018-10-12T00:13:36.741Z,101292.25
2018-10-12T00:13:48.519Z,101296.55
2018-10-12T00:14:00.263Z,101295.23
2018-10-12T00:14:12.031Z,101294.70
2018-10-12T00:14:23.791Z,101294.32
2018-10-12T00:14:35.552Z,101293.40
2018-10-12T00:14:47.304Z,101292.48
2018-10-12T00:14:59.063Z,101288.19
2018-10-12T00:15:11.118Z,101293.02
2018-10-12T00:15:23.231Z,101293.55
2018-10-12T00:15:35.021Z,101290.41
2018-10-12T00:15:46.781Z,101292.25
2018-10-12T00:15:58.532Z,101289.48
2018-10-12T00:16:10.291Z,101293.78
2018-10-12T00:16:22.047Z,101298.99
2018-10-12T00:16:33.804Z,101292.48
2018-10-12T00:16:45.560Z,101292.48
2018-10-12T00:16:57.310Z,101288.56
2018-10-12T00:17:09.054Z,101289.48
2018-10-12T00:17:20.810Z,101296.00
2018-10-12T00:17:32.567Z,101293.40
2018-10-12T00:17:44.315Z,101290.41
2018-10-12T00:17:56.502Z,101291.72
2018-10-12T00:18:08.262Z,101289.48
2018-10-12T00:18:20.012Z,101290.79
2018-10-12T00:18:31.787Z,101287.27
2018-10-12T00:18:43.576Z,101292.25
2018-10-12T00:18:55.335Z,101286.88
2018-10-12T00:19:07.086Z,101292.63
2018-10-12T00:19:18.932Z,101292.48
2018-10-12T00:19:30.678Z,101298.06
2018-10-12T00:19:42.437Z,101295.63
2018-10-12T00:19:54.197Z,101290.41
2018-10-12T00:20:05.966Z,101293.40
2018-10-12T00:20:17.727Z,101291.72
2018-10-12T00:20:29.686Z,101296.16
2018-10-12T00:20:41.436Z,101296.55
2018-10-12T00:20:53.189Z,101290.79
2018-10-12T00:21:04.945Z,101294.70
2018-10-12T00:21:16.708Z,101288.95
2018-10-12T00:21:28.443Z,101292.48
2018-10-12T00:21:40.209Z,101294.32
2018-10-12T00:21:51.973Z,101292.48
2018-10-12T00:22:03.744Z,101294.16
2018-10-12T00:22:15.500Z,101297.69
2018-10-12T00:22:27.259Z,101293.02
2018-10-12T00:22:39.002Z,101296.92
2018-10-12T00:22:50.778Z,101293.55
2018-10-12T00:23:02.531Z,101293.40
2018-10-12T00:23:14.286Z,101289.88
2018-10-12T00:23:26.048Z,101294.86
2018-10-12T00:23:37.839Z,101297.47
2018-10-12T00:23:49.595Z,101296.92
2018-10-12T00:24:01.387Z,101293.40
2018-10-12T00:24:13.153Z,101298.23
2018-10-12T00:24:24.994Z,101294.70
2018-10-12T00:24:36.767Z,101296.16
2018-10-12T00:24:48.527Z,101298.39
2018-10-12T00:25:00.283Z,101296.92
2018-10-12T00:25:12.032Z,101295.63
2018-10-12T00:25:24.635Z,101300.83
2018-10-12T00:25:36.392Z,101294.32
2018-10-12T00:25:48.134Z,101295.63
2018-10-12T00:25:59.909Z,101303.59
2018-10-12T00:26:11.664Z,101299.15
2018-10-12T00:26:23.439Z,101295.78
2018-10-12T00:26:35.795Z,101294.86
2018-10-12T00:26:47.529Z,101297.84
2018-10-12T00:26:59.282Z,101297.30
2018-10-12T00:27:11.042Z,101301.37
2018-10-12T00:27:22.786Z,101304.52
2018-10-12T00:27:34.548Z,101303.82
2018-10-12T00:27:46.312Z,101300.99
2018-10-12T00:27:58.060Z,101302.52
2018-10-12T00:28:09.827Z,101300.83
2018-10-12T00:28:21.590Z,101305.28
2018-10-12T00:28:33.344Z,101304.74
2018-10-12T00:28:45.099Z,101299.53
2018-10-12T00:28:56.846Z,101300.83
2018-10-12T00:29:08.588Z,101303.98
2018-10-12T00:29:20.362Z,101300.83
2018-10-12T00:29:32.106Z,101304.90
2018-10-12T00:29:43.851Z,101305.28
2018-10-12T00:29:55.605Z,101301.37
2018-10-12T00:30:07.381Z,101302.30
2018-10-12T00:30:19.138Z,101308.42
2018-10-12T00:30:30.891Z,101303.59
2018-10-12T00:30:42.631Z,101302.67
2018-10-12T00:30:54.378Z,101300.83
2018-10-12T00:31:06.136Z,101299.15
2018-10-12T00:31:17.876Z,101299.15
2018-10-12T00:31:29.628Z,101303.98
2018-10-12T00:31:41.386Z,101303.98
2018-10-12T00:31:53.169Z,101300.83
2018-10-12T00:32:04.951Z,101302.67
2018-10-12T00:32:16.712Z,101299.15
2018-10-12T00:32:28.476Z,101298.61
2018-10-12T00:32:40.237Z,101296.00
2018-10-12T00:32:51.993Z,101299.53
2018-10-12T00:33:03.797Z,101298.61
2018-10-12T00:33:15.555Z,101295.08
2018-10-12T00:33:27.316Z,101297.69
2018-10-12T00:33:39.108Z,101299.53
2018-10-12T00:33:50.885Z,101297.30
2018-10-12T00:34:02.650Z,101299.91
2018-10-12T00:34:14.402Z,101295.08
2018-10-12T00:34:26.163Z,101294.70
2018-10-12T00:34:37.920Z,101294.32
2018-10-12T00:34:49.680Z,101292.48
2018-10-12T00:35:01.443Z,101297.69
2018-10-12T00:35:13.490Z,101296.39
2018-10-12T00:35:25.258Z,101296.39
2018-10-12T00:35:37.010Z,101300.99
2018-10-12T00:35:48.771Z,101295.08
2018-10-12T00:36:00.540Z,101291.55
2018-10-12T00:36:12.292Z,101292.48
2018-10-12T00:36:24.036Z,101300.83
2018-10-12T00:36:35.787Z,101297.30
2018-10-12T00:36:47.535Z,101295.08
2018-10-12T00:36:59.285Z,101296.00
2018-10-12T00:37:11.051Z,101295.84
2018-10-12T00:37:22.799Z,101293.78
2018-10-12T00:37:34.553Z,101297.69
2018-10-12T00:37:46.306Z,101298.45
2018-10-12T00:37:58.069Z,101300.30
2018-10-12T00:38:09.806Z,101295.08
2018-10-12T00:38:21.589Z,101300.30
2018-10-12T00:38:33.337Z,101295.08
2018-10-12T00:38:45.284Z,101296.39
2018-10-12T00:38:57.032Z,101296.77
2018-10-12T00:39:09.100Z,101296.77
2018-10-12T00:39:20.848Z,101301.98
2018-10-12T00:39:32.621Z,101300.30
2018-10-12T00:39:44.412Z,101292.86
2018-10-12T00:39:56.164Z,101295.84
2018-10-12T00:40:07.940Z,101295.08
2018-10-12T00:40:19.708Z,101301.59
2018-10-12T00:40:31.464Z,101288.95
2018-10-12T00:40:43.240Z,101295.47
2018-10-12T00:40:54.992Z,101297.69
2018-10-12T00:41:06.738Z,101296.77
2018-10-12T00:41:18.481Z,101299.38
2018-10-12T00:41:30.242Z,101298.23
2018-10-12T00:41:42.001Z,101292.86
2018-10-12T00:41:53.743Z,101295.47
2018-10-12T00:42:05.491Z,101293.78
2018-10-12T00:42:17.266Z,101297.30
2018-10-12T00:42:29.030Z,101297.30
2018-10-12T00:42:40.774Z,101295.47
2018-10-12T00:42:53.203Z,101295.84
2018-10-12T00:43:05.587Z,101296.77
2018-10-12T00:43:17.330Z,101291.94
2018-10-12T00:43:29.087Z,101298.06
2018-10-12T00:43:40.839Z,101298.45
2018-10-12T00:43:52.616Z,101300.14
2018-10-12T00:44:04.401Z,101303.82
2018-10-12T00:44:16.335Z,101300.67
2018-10-12T00:44:28.095Z,101297.15
2018-10-12T00:44:39.942Z,101298.06
2018-10-12T00:44:51.687Z,101300.30
2018-10-12T00:45:03.632Z,101298.06
2018-10-12T00:45:15.372Z,101295.08
2018-10-12T00:45:27.286Z,101296.77
2018-10-12T00:45:39.064Z,101298.06
2018-10-12T00:45:50.824Z,101294.55
2018-10-12T00:46:02.579Z,101306.42
2018-10-12T00:46:14.332Z,101299.38
2018-10-12T00:46:26.098Z,101299.38
2018-10-12T00:46:37.892Z,101297.69
2018-10-12T00:46:49.665Z,101298.61
2018-10-12T00:47:01.430Z,101294.70
2018-10-12T00:47:13.207Z,101299.38
2018-10-12T00:47:24.972Z,101299.91
2018-10-12T00:47:36.730Z,101298.61
2018-10-12T00:47:54.087Z,101306.97
2018-10-12T00:48:05.842Z,101296.39
2018-10-12T00:48:17.620Z,101300.30
2018-10-12T00:48:29.368Z,101298.45
2018-10-12T00:48:41.128Z,101296.77
2018-10-12T00:48:52.923Z,101302.90
2018-10-12T00:49:04.667Z,101299.91
2018-10-12T00:49:16.410Z,101297.30
2018-10-12T00:49:28.176Z,101300.67
2018-10-12T00:49:39.956Z,101297.69
2018-10-12T00:49:51.820Z,101299.75
2018-10-12T00:50:03.539Z,101295.47
2018-10-12T00:50:15.303Z,101299.38
2018-10-12T00:50:27.621Z,101304.58
2018-10-12T00:50:39.376Z,101298.06
2018-10-12T00:50:51.116Z,101292.86
2018-10-12T00:51:02.867Z,101303.12
2018-10-12T00:51:14.614Z,101299.75
2018-10-12T00:51:26.362Z,101295.84
2018-10-12T00:51:38.123Z,101300.67
2018-10-12T00:51:49.876Z,101296.23
2018-10-12T00:52:01.640Z,101298.45
2018-10-12T00:52:13.391Z,101295.47
2018-10-12T00:52:25.144Z,101299.75
2018-10-12T00:52:36.903Z,101291.94
2018-10-12T00:52:48.668Z,101296.77
2018-10-12T00:53:01.027Z,101297.15
2018-10-12T00:53:12.797Z,101296.39
2018-10-12T00:53:24.546Z,101301.59
2018-10-12T00:53:36.305Z,101301.59
2018-10-12T00:53:48.068Z,101297.15
2018-10-12T00:53:59.844Z,101299.75
2018-10-12T00:54:11.616Z,101293.23
2018-10-12T00:54:23.368Z,101298.45
2018-10-12T00:54:35.145Z,101293.23
2018-10-12T00:54:46.891Z,101296.39
2018-10-12T00:54:58.661Z,101296.77
2018-10-12T00:55:10.418Z,101299.75
2018-10-12T00:55:22.215Z,101298.45
2018-10-12T00:55:34.462Z,101296.39
2018-10-12T00:55:46.216Z,101302.90
2018-10-12T00:55:57.986Z,101296.77
2018-10-12T00:56:10.194Z,101300.14
2018-10-12T00:56:21.948Z,101298.45
2018-10-12T00:56:33.709Z,101300.67
2018-10-12T00:56:45.471Z,101301.05
2018-10-12T00:56:57.216Z,101304.58
2018-10-12T00:57:08.995Z,101300.30
2018-10-12T00:57:20.742Z,101297.69
2018-10-12T00:57:32.486Z,101300.14
2018-10-12T00:57:44.244Z,101302.36
2018-10-12T00:57:56.004Z,101300.30
2018-10-12T00:58:07.807Z,101295.47
2018-10-12T00:58:19.562Z,101298.06
2018-10-12T00:58:31.310Z,101301.05
2018-10-12T00:58:43.055Z,101297.53
2018-10-12T00:58:54.818Z,101300.14
2018-10-12T00:59:06.596Z,101298.83
2018-10-12T00:59:18.351Z,101297.53
2018-10-12T00:59:30.097Z,101297.53
2018-10-12T00:59:41.857Z,101301.98
2018-10-12T00:59:53.636Z,101301.44
2018-10-12T01:00:05.418Z,101302.36
2018-10-12T01:00:17.190Z,101300.14
2018-10-12T01:00:28.940Z,101301.82
2018-10-12T01:00:40.686Z,101299.38
2018-10-12T01:00:52.454Z,101298.06
2018-10-12T01:01:04.203Z,101301.98
2018-10-12T01:01:15.976Z,101297.15
2018-10-12T01:01:27.736Z,101301.44
2018-10-12T01:01:39.493Z,101298.83
2018-10-12T01:01:51.247Z,101301.44
2018-10-12T01:02:03.007Z,101298.45
2018-10-12T01:02:14.775Z,101303.28
2018-10-12T01:02:26.524Z,101301.44
2018-10-12T01:02:38.288Z,101300.67
2018-10-12T01:02:50.110Z,101302.90
2018-10-12T01:03:01.867Z,101302.74
2018-10-12T01:03:13.611Z,101301.05
2018-10-12T01:03:25.376Z,101296.23
2018-10-12T01:03:37.132Z,101304.58
2018-10-12T01:03:49.547Z,101303.66
2018-10-12T01:04:01.320Z,101306.81
2018-10-12T01:04:13.099Z,101303.66
2018-10-12T01:04:24.854Z,101303.28
2018-10-12T01:04:36.628Z,101298.06
2018-10-12T01:04:48.395Z,101304.97
2018-10-12T01:05:00.139Z,101303.28
2018-10-12T01:05:12.046Z,101303.66
2018-10-12T01:05:23.933Z,101300.30
2018-10-12T01:05:35.682Z,101300.67
2018-10-12T01:05:47.462Z,101304.20
2018-10-12T01:05:59.224Z,101297.69
2018-10-12T01:06:10.988Z,101295.47
2018-10-12T01:06:22.748Z,101294.55
2018-10-12T01:06:34.526Z,101299.38
2018-10-12T01:06:46.299Z,101299.75
2018-10-12T01:06:58.076Z,101303.28
2018-10-12T01:07:09.838Z,101294.38
2018-10-12T01:07:21.587Z,101298.06
2018-10-12T01:07:33.334Z,101297.15
2018-10-12T01:07:45.085Z,101296.23
2018-10-12T01:07:56.840Z,101296.23
2018-10-12T01:08:08.597Z,101291.55
2018-10-12T01:08:20.361Z,101289.72
2018-10-12T01:08:32.164Z,101293.23
2018-10-12T01:08:43.886Z,101293.08
2018-10-12T01:08:55.640Z,101292.70
2018-10-12T01:09:07.424Z,101295.69
2018-10-12T01:09:19.196Z,101294.92
2018-10-12T01:09:30.943Z,101291.78
2018-10-12T01:09:42.761Z,101287.87
2018-10-12T01:09:54.507Z,101289.72
2018-10-12T01:10:06.254Z,101291.02
2018-10-12T01:10:17.994Z,101288.80
2018-10-12T01:10:29.750Z,101285.80
2018-10-12T01:10:41.552Z,101291.02
2018-10-12T01:10:53.308Z,101292.70
2018-10-12T01:11:05.068Z,101290.63
2018-10-12T01:11:16.810Z,101288.03
2018-10-12T01:11:28.569Z,101283.05
2018-10-12T01:11:41.027Z,101287.87
2018-10-12T01:11:52.775Z,101290.09
2018-10-12T01:12:04.528Z,101287.11
2018-10-12T01:12:16.367Z,101277.83
2018-10-12T01:12:28.900Z,101283.58
2018-10-12T01:12:40.662Z,101288.41
2018-10-12T01:12:52.408Z,101284.12
2018-10-12T01:13:04.165Z,101281.90
2018-10-12T01:13:15.904Z,101281.52
2018-10-12T01:13:27.646Z,101284.50
2018-10-12T01:13:39.386Z,101279.67
2018-10-12T01:13:51.129Z,101283.96
2018-10-12T01:14:02.879Z,101280.97
2018-10-12T01:14:14.637Z,101279.29
2018-10-12T01:14:26.433Z,101285.80
2018-10-12T01:14:38.195Z,101280.97
2018-10-12T01:14:50.103Z,101284.12
2018-10-12T01:15:02.316Z,101283.20
2018-10-12T01:15:14.071Z,101285.27
2018-10-12T01:15:25.835Z,101278.75
2018-10-12T01:15:37.592Z,101281.36
2018-10-12T01:15:49.350Z,101288.41
2018-10-12T01:16:01.096Z,101283.58
2018-10-12T01:16:12.870Z,101280.05
2018-10-12T01:16:24.617Z,101286.56
2018-10-12T01:16:36.407Z,101281.36
2018-10-12T01:16:48.158Z,101283.96
2018-10-12T01:16:59.901Z,101287.48
2018-10-12T01:17:11.652Z,101286.19
2018-10-12T01:17:23.411Z,101283.58
2018-10-12T01:17:35.900Z,101282.66
2018-10-12T01:17:47.665Z,101287.48
2018-10-12T01:17:59.473Z,101291.02
2018-10-12T01:18:11.197Z,101284.88
2018-10-12T01:18:22.939Z,101286.95
2018-10-12T01:18:34.724Z,101288.80
2018-10-12T01:18:46.474Z,101287.87
2018-10-12T01:18:58.248Z,101290.48
2018-10-12T01:19:09.996Z,101289.17
2018-10-12T01:19:21.757Z,101289.17
2018-10-12T01:19:33.535Z,101291.02
2018-10-12T01:19:45.323Z,101283.96
2018-10-12T01:19:57.334Z,101284.50
2018-10-12T01:20:09.075Z,101294.16
2018-10-12T01:20:20.827Z,101289.72
2018-10-12T01:20:32.581Z,101285.80
2018-10-12T01:20:44.339Z,101288.80
2018-10-12T01:20:56.084Z,101285.80
2018-10-12T01:21:07.887Z,101289.17
2018-10-12T01:21:19.639Z,101282.66
2018-10-12T01:21:31.411Z,101290.09
2018-10-12T01:21:43.180Z,101288.41
2018-10-12T01:21:54.945Z,101289.17
2018-10-12T01:22:06.693Z,101286.95
2018-10-12T01:22:18.437Z,101285.27
2018-10-12T01:22:30.411Z,101284.88
2018-10-12T01:22:42.160Z,101287.87
2018-10-12T01:22:53.920Z,101286.56
2018-10-12T01:23:05.675Z,101279.13
2018-10-12T01:23:17.420Z,101287.87
2018-10-12T01:23:29.162Z,101286.19
2018-10-12T01:23:40.923Z,101282.28
2018-10-12T01:23:52.687Z,101282.66
2018-10-12T01:24:04.453Z,101280.05
2018-10-12T01:24:16.205Z,101279.52
2018-10-12T01:24:27.955Z,101281.36
2018-10-12T01:24:39.755Z,101280.44
2018-10-12T01:24:51.504Z,101284.34
2018-10-12T01:25:04.318Z,101280.81
2018-10-12T01:25:16.062Z,101284.73
2018-10-12T01:25:27.808Z,101280.97
2018-10-12T01:25:39.557Z,101280.97
2018-10-12T01:25:51.328Z,101288.25
2018-10-12T01:26:03.088Z,101288.80
2018-10-12T01:26:14.850Z,101290.09
2018-10-12T01:26:26.618Z,101283.96
2018-10-12T01:26:38.360Z,101283.58
2018-10-12T01:26:50.114Z,101290.09
2018-10-12T01:27:01.859Z,101291.02
2018-10-12T01:27:13.601Z,101289.72
2018-10-12T01:27:25.381Z,101292.32
2018-10-12T01:27:37.119Z,101291.94
2018-10-12T01:27:48.863Z,101287.87
2018-10-12T01:28:00.612Z,101291.94
2018-10-12T01:28:12.364Z,101292.32
2018-10-12T01:28:24.121Z,101291.23
2018-10-12T01:28:35.979Z,101293.47
2018-10-12T01:28:54.092Z,101290.48
2018-10-12T01:29:05.848Z,101290.48
2018-10-12T01:29:17.604Z,101292.70
2018-10-12T01:29:29.359Z,101286.95
2018-10-12T01:29:41.135Z,101295.69
2018-10-12T01:29:53.278Z,101296.23
2018-10-12T01:30:05.040Z,101292.32
2018-10-12T01:30:16.783Z,101295.84
2018-10-12T01:30:28.552Z,101291.40
2018-10-12T01:30:40.312Z,101294.00
2018-10-12T01:30:52.059Z,101293.08
2018-10-12T01:31:03.810Z,101291.78
2018-10-12T01:31:15.564Z,101294.92
2018-10-12T01:31:28.110Z,101293.08
2018-10-12T01:31:39.856Z,101298.83
2018-10-12T01:31:51.624Z,101289.55
2018-10-12T01:32:03.381Z,101294.55
2018-10-12T01:32:20.688Z,101293.08
2018-10-12T01:32:38.026Z,101295.30
2018-10-12T01:32:55.279Z,101297.91
2018-10-12T01:33:07.445Z,101295.84
2018-10-12T01:33:19.190Z,101297.91
2018-10-12T01:33:30.943Z,101295.69
2018-10-12T01:33:42.702Z,101294.38
2018-10-12T01:33:54.646Z,101297.91
2018-10-12T01:34:06.400Z,101290.86
2018-10-12T01:34:18.157Z,101299.59
2018-10-12T01:34:29.908Z,101291.23
2018-10-12T01:34:41.682Z,101289.94
2018-10-12T01:34:54.042Z,101289.02
2018-10-12T01:35:05.786Z,101293.47
2018-10-12T01:35:17.556Z,101288.63
2018-10-12T01:35:29.299Z,101286.95
2018-10-12T01:35:41.045Z,101292.16
2018-10-12T01:35:52.798Z,101293.08
2018-10-12T01:36:04.561Z,101292.16
2018-10-12T01:36:16.325Z,101288.63
2018-10-12T01:36:28.084Z,101285.11
2018-10-12T01:36:39.839Z,101292.92
2018-10-12T01:36:51.588Z,101295.69
2018-10-12T01:37:04.319Z,101293.47
2018-10-12T01:37:16.280Z,101292.55
2018-10-12T01:37:28.032Z,101293.08
2018-10-12T01:37:39.794Z,101294.00
2018-10-12T01:37:51.553Z,101293.47
2018-10-12T01:38:03.305Z,101295.69
2018-10-12T01:38:15.066Z,101296.45
2018-10-12T01:38:26.810Z,101299.22
2018-10-12T01:38:38.550Z,101296.45
2018-10-12T01:38:50.318Z,101298.67
2018-10-12T01:39:02.054Z,101300.90
2018-10-12T01:39:13.807Z,101303.51
2018-10-12T01:39:25.735Z,101299.59
2018-10-12T01:39:37.468Z,101299.59
2018-10-12T01:39:49.248Z,101302.20
2018-10-12T01:40:01.019Z,101298.14
2018-10-12T01:40:12.790Z,101302.58
2018-10-12T01:40:24.555Z,101301.66
2018-10-12T01:40:36.313Z,101300.36
2018-10-12T01:40:48.068Z,101301.28
2018-10-12T01:40:59.816Z,101302.97
2018-10-12T01:41:11.572Z,101301.66
2018-10-12T01:41:23.337Z,101307.41
2018-10-12T01:41:35.088Z,101303.12
2018-10-12T01:41:46.841Z,101302.97
2018-10-12T01:41:58.584Z,101304.27
2018-10-12T01:42:10.357Z,101307.03
2018-10-12T01:42:22.086Z,101307.41
2018-10-12T01:42:33.854Z,101302.20
2018-10-12T01:42:45.609Z,101307.41
2018-10-12T01:42:57.574Z,101304.42
2018-10-12T01:43:09.326Z,101300.90
2018-10-12T01:43:21.077Z,101304.81
2018-10-12T01:43:32.843Z,101302.20
2018-10-12T01:43:44.790Z,101305.19
2018-10-12T01:43:56.546Z,101303.51
2018-10-12T01:44:08.305Z,101301.28
2018-10-12T01:44:20.055Z,101304.81
2018-10-12T01:44:31.809Z,101304.42
2018-10-12T01:44:43.554Z,101302.05
2018-10-12T01:44:55.326Z,101303.12
2018-10-12T01:45:07.079Z,101302.20
2018-10-12T01:45:18.822Z,101301.66
2018-10-12T01:45:30.868Z,101300.90
2018-10-12T01:45:42.615Z,101297.75
2018-10-12T01:45:54.368Z,101301.28
2018-10-12T01:46:06.125Z,101299.98
2018-10-12T01:46:17.881Z,101297.75
2018-10-12T01:46:29.640Z,101297.38
2018-10-12T01:46:41.391Z,101293.84
2018-10-12T01:46:53.144Z,101293.08
2018-10-12T01:47:04.901Z,101291.23
2018-10-12T01:47:16.668Z,101295.15
2018-10-12T01:47:28.427Z,101292.92
2018-10-12T01:47:40.165Z,101289.02
2018-10-12T01:47:51.905Z,101291.23
2018-10-12T01:48:03.661Z,101291.63
2018-10-12T01:48:15.424Z,101288.09
2018-10-12T01:48:27.182Z,101286.80
2018-10-12T01:48:38.917Z,101287.94
2018-10-12T01:48:50.663Z,101289.78
2018-10-12T01:49:02.434Z,101293.30
2018-10-12T01:49:14.228Z,101290.70
2018-10-12T01:49:25.975Z,101284.19
2018-10-12T01:49:38.186Z,101286.41
2018-10-12T01:49:49.935Z,101284.19
2018-10-12T01:50:01.735Z,101287.72
2018-10-12T01:50:13.514Z,101287.72
2018-10-12T01:50:25.273Z,101285.88
2018-10-12T01:50:37.029Z,101283.27
2018-10-12T01:50:48.787Z,101288.09
2018-10-12T01:51:00.534Z,101289.78
2018-10-12T01:51:12.294Z,101284.56
2018-10-12T01:51:24.046Z,101292.00
2018-10-12T01:51:35.785Z,101284.56
2018-10-12T01:51:47.535Z,101286.80
2018-10-12T01:51:59.307Z,101290.32
2018-10-12T01:52:12.176Z,101290.70
2018-10-12T01:52:23.924Z,101287.17
2018-10-12T01:52:35.666Z,101285.48
2018-10-12T01:52:47.428Z,101288.63
2018-10-12T01:52:59.204Z,101284.34
2018-10-12T01:53:10.947Z,101286.41
2018-10-12T01:53:22.707Z,101287.33
2018-10-12T01:53:34.818Z,101290.70
2018-10-12T01:53:46.580Z,101287.55
2018-10-12T01:53:58.324Z,101290.70
2018-10-12T01:54:10.074Z,101286.41
2018-10-12T01:54:21.837Z,101288.09
2018-10-12T01:54:33.594Z,101285.48
2018-10-12T01:54:45.350Z,101288.09
2018-10-12T01:54:57.091Z,101285.65
2018-10-12T01:55:08.865Z,101284.34
2018-10-12T01:55:20.614Z,101283.42
2018-10-12T01:55:32.343Z,101283.80
2018-10-12T01:55:44.084Z,101287.33
2018-10-12T01:56:01.370Z,101285.48
2018-10-12T01:56:13.114Z,101286.41
2018-10-12T01:56:24.864Z,101285.48
2018-10-12T01:56:36.615Z,101284.19
2018-10-12T01:56:48.373Z,101285.48
2018-10-12T01:57:00.147Z,101285.48
2018-10-12T01:57:12.718Z,101285.11
2018-10-12T01:57:24.454Z,101285.48
2018-10-12T01:57:36.202Z,101284.19
2018-10-12T01:57:47.963Z,101289.39
2018-10-12T01:57:59.710Z,101285.88
2018-10-12T01:58:11.456Z,101286.25
2018-10-12T01:58:23.204Z,101289.39
2018-10-12T01:58:35.566Z,101284.56
2018-10-12T01:58:47.310Z,101289.39
2018-10-12T01:58:59.050Z,101290.70
2018-10-12T01:59:10.810Z,101288.48
2018-10-12T01:59:22.549Z,101283.27
2018-10-12T01:59:34.310Z,101288.48
2018-10-12T01:59:46.060Z,101292.92
2018-10-12T01:59:57.802Z,101291.63
2018-10-12T02:00:09.572Z,101288.48
2018-10-12T02:00:21.342Z,101289.78
2018-10-12T02:00:33.095Z,101289.78
2018-10-12T02:00:44.852Z,101293.30
2018-10-12T02:00:56.617Z,101288.48
2018-10-12T02:01:08.381Z,101294.23
2018-10-12T02:01:20.134Z,101298.52
2018-10-12T02:01:31.899Z,101293.30
2018-10-12T02:01:43.665Z,101293.30
2018-10-12T02:01:55.410Z,101287.17
2018-10-12T02:02:07.530Z,101288.86
2018-10-12T02:02:19.271Z,101290.32
2018-10-12T02:02:31.020Z,101294.23
2018-10-12T02:02:42.965Z,101289.39
2018-10-12T02:02:54.716Z,101290.70
2018-10-12T02:03:06.477Z,101291.08
2018-10-12T02:03:18.235Z,101289.02
2018-10-12T02:03:30.006Z,101289.39
2018-10-12T02:03:41.748Z,101288.09
2018-10-12T02:03:53.508Z,101282.34
2018-10-12T02:04:05.273Z,101282.89
2018-10-12T02:04:17.016Z,101285.48
2018-10-12T02:04:28.776Z,101285.48
2018-10-12T02:04:40.514Z,101286.25
2018-10-12T02:04:52.250Z,101284.56
2018-10-12T02:05:04.013Z,101284.56
2018-10-12T02:05:15.779Z,101283.80
2018-10-12T02:05:27.524Z,101281.42
2018-10-12T02:05:39.283Z,101283.27
2018-10-12T02:05:51.041Z,101283.27
2018-10-12T02:06:02.786Z,101281.58
2018-10-12T02:06:14.538Z,101282.89
2018-10-12T02:06:26.375Z,101283.27
2018-10-12T02:06:38.127Z,101283.65
2018-10-12T02:06:49.871Z,101279.36
2018-10-12T02:07:02.154Z,101277.52
2018-10-12T02:07:13.915Z,101278.05
2018-10-12T02:07:25.679Z,101284.19
2018-10-12T02:07:37.445Z,101285.33
2018-10-12T02:07:49.182Z,101283.65
2018-10-12T02:08:00.938Z,101284.19
2018-10-12T02:08:12.692Z,101281.96
2018-10-12T02:08:24.581Z,101282.89
2018-10-12T02:08:36.342Z,101279.36
2018-10-12T02:08:48.093Z,101280.66
2018-10-12T02:08:59.839Z,101284.03
2018-10-12T02:09:11.582Z,101280.13
2018-10-12T02:09:23.451Z,101283.27
2018-10-12T02:09:35.195Z,101281.05
2018-10-12T02:09:46.955Z,101281.96
2018-10-12T02:09:58.763Z,101284.56
2018-10-12T02:10:10.511Z,101283.27
2018-10-12T02:10:22.275Z,101284.56
2018-10-12T02:10:34.036Z,101283.65
2018-10-12T02:10:45.812Z,101284.56
2018-10-12T02:10:57.581Z,101282.34
2018-10-12T02:11:09.332Z,101289.39
2018-10-12T02:11:21.090Z,101292.00
2018-10-12T02:11:32.849Z,101286.63
2018-10-12T02:11:44.590Z,101289.78
2018-10-12T02:11:56.468Z,101288.48
2018-10-12T02:12:08.287Z,101293.30
2018-10-12T02:12:20.044Z,101296.30
2018-10-12T02:12:31.978Z,101297.22
2018-10-12T02:12:43.732Z,101298.52
2018-10-12T02:12:55.500Z,101294.61
2018-10-12T02:13:07.264Z,101298.90
2018-10-12T02:13:19.016Z,101299.82
2018-10-12T02:13:30.782Z,101296.84
2018-10-12T02:13:42.557Z,101293.30
2018-10-12T02:13:54.308Z,101302.42
2018-10-12T02:14:06.065Z,101296.30
2018-10-12T02:14:17.821Z,101296.84
2018-10-12T02:14:30.231Z,101297.75
2018-10-12T02:14:41.988Z,101299.05
2018-10-12T02:14:53.739Z,101302.97
2018-10-12T02:15:05.500Z,101299.44
2018-10-12T02:15:17.303Z,101301.50